If you wish to contribute or participate in the discussions about articles you are invited to join SKYbrary as a registered user

 Actions

Ascension

From SKYbrary Wiki

FHAW
Airport
ICAO: FHAW
Summary
Name Ascension
Region South America and Caribbean
Territory Saint Helena SH.gif
Location Ascension Island
Serving
Coordinates 7° 58' 10.00" S, 14° 23' 38.00" W
Runways
Designator Length Width Surface ROPS
13/31 3054 m10,019.685 ft <br /> 46 m150.919 ft <br /> ASP yes/yes


METAR
Observation FHAW 070850Z 12008KT 9999 FEW020 27/20 Q1014 NOSIG RMK BLU BLU
Station Wide Awake Field Ascension Island
Date/Time 07 March 2021 08:50:00
Wind direction 120°
Wind speed 08 kts
Lowest cloud amount few clouds
Temperature 27°C
Dew point 20°C
Humidity 65%
QNH 1014 hPa
Weather condition n/a

BS
Tag(s) Bird Strike
Non Avian Wildlife Hazards to Aircraft
WX
Tag(s) Cumulonimbus
Low Level Turbulence

Ascension Airport/Wideawake

ICAO: FHAW IATA: ASI

Description

International civil/military airport serving the British island of Ascension.

Climatology

(Köppen climate classification Aw)

Maps

Terrain

Loading map...

Airport Layout

Loading map...


Accidents & Serious Incidents at or in vicinity of FHAW

None on SKYbrary